Time;durP1;ratioP1;P1;durP2;ratioP2;P2;SDS_P1;SDS_P2;PMS_P1;PMS_P2;Temp;Humidity;BMP_temperature;BMP_pressure;BME280_temperature;BME280_humidity;BME280_pressure;Samples;Min_cycle;Max_cycle;Signal;HPM_P1;HPM_P2
2021/06/08 00:04:52;;;;;;;10.93;7.63;;;;;;;;;;12938246;22;20616;-75
2021/06/08 00:09:56;;;;;;;15.33;8.80;;;;;;;;;;12971980;22;20206;-77
2021/06/08 00:14:59;;;;;;;14.23;7.73;;;;;;;;;;12971259;22;20182;-76
2021/06/08 00:20:05;;;;;;;10.03;7.67;;;;;;;;;;12949911;22;20186;-76
2021/06/08 00:25:13;;;;;;;12.47;8.07;;;;;;;;;;12970924;22;20171;-76
2021/06/08 00:30:15;;;;;;;13.60;8.00;;;;;;;;;;12952128;22;20229;-76
2021/06/08 00:35:18;;;;;;;11.63;7.43;;;;;;;;;;12970188;22;20643;-76
2021/06/08 00:40:26;;;;;;;11.90;7.90;;;;;;;;;;12946487;22;20178;-75
2021/06/08 00:45:28;;;;;;;11.97;7.97;;;;;;;;;;12971380;22;20178;-76
2021/06/08 00:50:33;;;;;;;13.23;8.87;;;;;;;;;;12942380;22;20285;-76
2021/06/08 00:55:53;;;;;;;11.13;8.00;;;;;;;;;;12971281;22;20492;-76
2021/06/08 01:00:58;;;;;;;11.30;7.97;;;;;;;;;;13032032;22;20205;-76
2021/06/08 01:06:04;;;;;;;17.17;8.53;;;;;;;;;;13085886;22;20204;-76
2021/06/08 01:11:10;;;;;;;11.90;8.73;;;;;;;;;;13097895;22;20405;-77
2021/06/08 01:16:14;;;;;;;12.27;8.03;;;;;;;;;;13099744;22;20510;-76
2021/06/08 01:21:20;;;;;;;13.30;8.40;;;;;;;;;;13094906;22;20181;-76
2021/06/08 01:26:28;;;;;;;17.33;9.30;;;;;;;;;;13098404;22;20188;-76
2021/06/08 01:31:34;;;;;;;14.67;8.03;;;;;;;;;;13098529;22;20522;-76
2021/06/08 01:36:40;;;;;;;16.23;8.60;;;;;;;;;;13098013;22;20264;-76
2021/06/08 01:41:43;;;;;;;16.37;8.50;;;;;;;;;;13098065;22;20645;-76
2021/06/08 01:46:46;;;;;;;15.33;7.60;;;;;;;;;;13074779;22;20251;-76
2021/06/08 01:52:00;;;;;;;17.87;7.63;;;;;;;;;;13069487;22;20252;-76
2021/06/08 01:57:05;;;;;;;12.67;8.13;;;;;;;;;;13096600;22;20208;-76
2021/06/08 02:02:12;;;;;;;11.67;7.17;;;;;;;;;;13099924;22;20611;-76
2021/06/08 02:07:31;;;;;;;11.63;7.97;;;;;;;;;;13072846;22;20208;-75
2021/06/08 02:12:34;;;;;;;13.57;7.33;;;;;;;;;;13099532;22;20215;-75
2021/06/08 02:17:39;;;;;;;11.23;7.10;;;;;;;;;;13095237;22;20459;-75
2021/06/08 02:22:59;;;;;;;10.60;7.60;;;;;;;;;;13099896;22;20169;-75
2021/06/08 02:28:17;;;;;;;9.70;7.37;;;;;;;;;;13052054;22;20231;-75
2021/06/08 02:33:41;;;;;;;7.33;6.23;;;;;;;;;;13078224;22;20183;-75
2021/06/08 02:44:37;;;;;;;12.27;7.27;;;;;;;;;;13104605;22;20245;-77
2021/06/08 02:49:40;;;;;;;9.90;7.43;;;;;;;;;;13076436;22;20288;-77
2021/06/08 02:54:44;;;;;;;13.03;7.27;;;;;;;;;;13080689;22;20173;-75
2021/06/08 02:59:50;;;;;;;14.57;8.10;;;;;;;;;;13099996;22;20177;-75
2021/06/08 03:04:58;;;;;;;14.97;8.83;;;;;;;;;;13076839;22;20695;-76
2021/06/08 03:10:04;;;;;;;12.07;8.00;;;;;;;;;;13102540;22;20457;-75
2021/06/08 03:15:08;;;;;;;13.67;7.60;;;;;;;;;;13101539;22;20189;-75
2021/06/08 03:20:13;;;;;;;13.90;8.07;;;;;;;;;;13076499;22;20173;-75
2021/06/08 03:25:19;;;;;;;13.30;7.67;;;;;;;;;;13101598;22;20268;-75
2021/06/08 03:30:30;;;;;;;9.63;7.03;;;;;;;;;;13098347;22;20244;-75
2021/06/08 03:35:36;;;;;;;18.50;7.60;;;;;;;;;;13096752;22;20173;-76
2021/06/08 03:40:40;;;;;;;9.87;6.83;;;;;;;;;;13099789;22;20646;-75
2021/06/08 03:45:46;;;;;;;10.80;7.10;;;;;;;;;;13100304;22;20173;-74
2021/06/08 03:50:50;;;;;;;9.00;7.00;;;;;;;;;;13075251;22;20204;-76
2021/06/08 03:55:54;;;;;;;10.53;6.93;;;;;;;;;;13071710;22;20203;-75
2021/06/08 04:00:58;;;;;;;10.00;7.20;;;;;;;;;;13078049;22;20181;-75
2021/06/08 04:06:01;;;;;;;9.27;6.73;;;;;;;;;;13075576;22;20197;-75
2021/06/08 04:11:27;;;;;;;14.50;8.23;;;;;;;;;;13077763;22;20209;-75
2021/06/08 04:16:45;;;;;;;12.40;8.17;;;;;;;;;;13053845;22;20173;-75
2021/06/08 04:21:54;;;;;;;11.80;7.87;;;;;;;;;;13074517;22;20672;-77
2021/06/08 04:27:00;;;;;;;10.03;7.20;;;;;;;;;;13099348;22;20255;-75
2021/06/08 04:32:12;;;;;;;9.80;7.00;;;;;;;;;;13098001;22;20177;-76
2021/06/08 04:37:15;;;;;;;8.63;6.23;;;;;;;;;;13048015;22;20200;-76
2021/06/08 04:42:27;;;;;;;11.50;6.77;;;;;;;;;;13076866;22;20165;-75
2021/06/08 04:47:29;;;;;;;9.50;5.90;;;;;;;;;;13075885;22;20205;-76
2021/06/08 04:52:32;;;;;;;6.93;5.70;;;;;;;;;;13096631;22;20177;-75
2021/06/08 04:57:36;;;;;;;8.57;6.30;;;;;;;;;;13097401;22;20179;-76
2021/06/08 05:02:40;;;;;;;10.53;6.37;;;;;;;;;;13072880;22;20512;-75
2021/06/08 05:07:45;;;;;;;8.00;6.37;;;;;;;;;;13076234;22;20201;-76
2021/06/08 05:12:50;;;;;;;12.97;6.57;;;;;;;;;;13097854;22;20169;-76
2021/06/08 05:17:54;;;;;;;8.53;5.90;;;;;;;;;;13074700;22;20570;-78
2021/06/08 05:22:58;;;;;;;7.17;5.73;;;;;;;;;;13096893;22;20196;-77
2021/06/08 05:28:02;;;;;;;12.83;6.70;;;;;;;;;;13076483;22;20554;-77
2021/06/08 05:33:14;;;;;;;7.87;6.03;;;;;;;;;;13094494;22;20234;-77
2021/06/08 05:38:21;;;;;;;8.07;5.60;;;;;;;;;;13073532;22;20174;-77
2021/06/08 05:43:37;;;;;;;9.60;6.40;;;;;;;;;;13098154;22;20173;-77
2021/06/08 05:49:00;;;;;;;9.93;6.73;;;;;;;;;;13096202;22;20455;-77
2021/06/08 05:59:38;;;;;;;9.90;7.07;;;;;;;;;;13067747;22;20176;-77
2021/06/08 06:04:42;;;;;;;12.80;6.07;;;;;;;;;;13098637;22;20201;-75
2021/06/08 06:09:49;;;;;;;9.00;6.37;;;;;;;;;;13094956;22;20195;-76
2021/06/08 06:15:04;;;;;;;9.47;5.33;;;;;;;;;;13031922;22;20216;-79
2021/06/08 06:20:07;;;;;;;7.40;5.10;;;;;;;;;;12980463;22;20738;-78
2021/06/08 06:25:15;;;;;;;6.03;5.27;;;;;;;;;;12951651;22;20640;-78
2021/06/08 06:30:33;;;;;;;6.57;4.50;;;;;;;;;;12977648;22;20200;-75
2021/06/08 06:35:36;;;;;;;9.70;4.80;;;;;;;;;;12950417;22;20162;-76
2021/06/08 06:40:39;;;;;;;6.10;4.00;;;;;;;;;;12974156;22;20213;-76
2021/06/08 06:45:44;;;;;;;5.13;3.83;;;;;;;;;;12948072;22;20492;-76
2021/06/08 06:50:47;;;;;;;5.50;3.67;;;;;;;;;;12950549;22;20225;-78
2021/06/08 06:55:50;;;;;;;3.63;3.13;;;;;;;;;;12973479;22;20178;-77
2021/06/08 07:00:54;;;;;;;7.20;3.47;;;;;;;;;;12953073;22;20174;-76
2021/06/08 07:05:57;;;;;;;4.47;3.30;;;;;;;;;;12968205;22;20241;-76
2021/06/08 07:11:00;;;;;;;6.73;3.20;;;;;;;;;;12972799;22;21100;-78
2021/06/08 07:16:04;;;;;;;6.77;2.70;;;;;;;;;;12970700;22;20686;-79
2021/06/08 07:21:07;;;;;;;5.67;2.60;;;;;;;;;;13012241;22;20232;-77
2021/06/08 07:26:11;;;;;;;4.17;2.10;;;;;;;;;;13101437;22;20256;-77
2021/06/08 07:31:42;;;;;;;4.00;2.07;;;;;;;;;;13098928;22;21043;-78
2021/06/08 07:36:46;;;;;;;4.10;1.83;;;;;;;;;;13096236;22;20180;-78
2021/06/08 07:41:52;;;;;;;2.27;1.50;;;;;;;;;;13104855;22;20177;-76
2021/06/08 07:47:02;;;;;;;2.30;1.60;;;;;;;;;;13078549;22;20876;-78
2021/06/08 07:52:07;;;;;;;4.37;2.00;;;;;;;;;;13078147;22;20291;-80
2021/06/08 07:57:09;;;;;;;3.53;1.70;;;;;;;;;;13078883;22;20621;-76
2021/06/08 08:02:34;;;;;;;2.20;1.70;;;;;;;;;;13103540;22;21007;-79
2021/06/08 08:07:57;;;;;;;;;;;;;;;;;;;;;
2021/06/08 08:13:17;;;;;;;3.47;1.60;;;;;;;;;;13083297;22;20181;-78
2021/06/08 08:18:34;;;;;;;3.57;1.70;;;;;;;;;;13099390;22;20203;-78
2021/06/08 08:23:54;;;;;;;3.97;1.73;;;;;;;;;;13029047;22;20227;-78
2021/06/08 08:28:59;;;;;;;3.27;1.43;;;;;;;;;;13102014;22;20195;-78
2021/06/08 08:34:08;;;;;;;2.67;1.33;;;;;;;;;;13099135;22;20177;-79
2021/06/08 08:39:12;;;;;;;2.63;1.60;;;;;;;;;;13099751;22;20169;-78
2021/06/08 08:44:16;;;;;;;2.67;1.37;;;;;;;;;;13104618;22;20201;-78
2021/06/08 08:49:20;;;;;;;3.37;1.50;;;;;;;;;;13097759;22;20204;-78
2021/06/08 08:54:28;;;;;;;2.83;1.50;;;;;;;;;;13079909;22;20641;-78
2021/06/08 08:59:30;;;;;;;2.13;1.40;;;;;;;;;;13077557;22;20240;-78
2021/06/08 09:04:33;;;;;;;4.80;1.67;;;;;;;;;;13078708;22;20256;-81
2021/06/08 09:09:37;;;;;;;3.57;1.57;;;;;;;;;;13098727;22;20695;-79
2021/06/08 09:14:40;;;;;;;2.90;1.70;;;;;;;;;;13080555;22;20201;-79
2021/06/08 09:19:42;;;;;;;4.10;1.80;;;;;;;;;;13096814;22;20231;-79
2021/06/08 09:24:54;;;;;;;3.93;1.50;;;;;;;;;;13080149;22;20815;-78
2021/06/08 09:29:56;;;;;;;3.03;1.50;;;;;;;;;;13103438;22;20235;-80
2021/06/08 09:34:59;;;;;;;1.73;1.40;;;;;;;;;;13099184;22;20426;-79
2021/06/08 09:40:15;;;;;;;3.10;1.50;;;;;;;;;;13102867;22;20208;-78
2021/06/08 09:45:19;;;;;;;2.60;1.50;;;;;;;;;;13079827;22;20200;-77
2021/06/08 09:50:28;;;;;;;2.30;1.50;;;;;;;;;;13079580;22;20211;-79
2021/06/08 09:55:47;;;;;;;2.73;1.50;;;;;;;;;;13078598;22;20165;-79
2021/06/08 10:01:05;;;;;;;4.27;1.80;;;;;;;;;;13074643;22;20238;-79
2021/06/08 10:06:08;;;;;;;5.77;1.87;;;;;;;;;;13074141;22;20649;-79
2021/06/08 10:11:16;;;;;;;3.43;1.70;;;;;;;;;;13101545;22;20271;-79
2021/06/08 10:16:29;;;;;;;5.23;2.07;;;;;;;;;;13076526;22;20177;-80
2021/06/08 10:21:37;;;;;;;2.80;1.43;;;;;;;;;;13073903;22;20207;-78
2021/06/08 10:26:44;;;;;;;4.13;1.67;;;;;;;;;;13095295;22;20177;-78
2021/06/08 10:31:47;;;;;;;2.53;1.80;;;;;;;;;;13076756;22;20193;-79
2021/06/08 10:37:09;;;;;;;5.17;1.80;;;;;;;;;;13072078;22;20169;-79
2021/06/08 10:42:15;;;;;;;5.70;2.00;;;;;;;;;;13097716;22;20260;-79
2021/06/08 10:47:24;;;;;;;2.23;1.63;;;;;;;;;;13097725;22;20197;-78
2021/06/08 10:52:27;;;;;;;5.00;2.00;;;;;;;;;;13079032;22;20201;-78
2021/06/08 10:57:42;;;;;;;3.17;1.80;;;;;;;;;;13079841;22;20174;-79
2021/06/08 11:02:49;;;;;;;4.30;1.70;;;;;;;;;;13078013;22;20648;-78
2021/06/08 11:07:52;;;;;;;3.20;2.00;;;;;;;;;;13080787;22;20177;-79
2021/06/08 11:13:10;;;;;;;3.97;2.20;;;;;;;;;;13101569;22;20193;-79
2021/06/08 11:18:42;;;;;;;2.33;1.70;;;;;;;;;;13074161;22;20215;-79
2021/06/08 11:23:45;;;;;;;3.93;1.83;;;;;;;;;;13077828;22;20180;-78
2021/06/08 11:28:49;;;;;;;3.10;1.80;;;;;;;;;;13075933;22;20247;-78
2021/06/08 11:34:00;;;;;;;4.17;2.00;;;;;;;;;;13074707;22;20222;-78
2021/06/08 11:39:23;;;;;;;2.23;1.70;;;;;;;;;;13099436;22;20175;-78
2021/06/08 11:44:25;;;;;;;1.90;1.70;;;;;;;;;;13074979;22;20177;-79
2021/06/08 11:49:29;;;;;;;3.90;2.10;;;;;;;;;;13068664;22;20204;-78
2021/06/08 11:54:39;;;;;;;4.80;2.23;;;;;;;;;;13074128;22;20484;-78
2021/06/08 11:59:56;;;;;;;2.77;2.00;;;;;;;;;;13071404;22;20169;-77
2021/06/08 12:05:08;;;;;;;5.20;2.20;;;;;;;;;;13072718;22;20169;-79
2021/06/08 12:10:11;;;;;;;6.60;1.90;;;;;;;;;;13073309;22;20213;-77
2021/06/08 12:15:23;;;;;;;5.03;2.33;;;;;;;;;;13076065;22;20556;-79
2021/06/08 12:20:27;;;;;;;2.30;2.10;;;;;;;;;;13075934;22;20516;-78
2021/06/08 12:25:30;;;;;;;3.87;2.30;;;;;;;;;;13079816;22;20212;-78
2021/06/08 12:30:33;;;;;;;3.73;2.30;;;;;;;;;;13078105;22;20205;-79
2021/06/08 12:35:37;;;;;;;4.13;2.30;;;;;;;;;;13099449;22;20180;-79
2021/06/08 12:40:56;;;;;;;4.70;2.20;;;;;;;;;;13075058;22;20611;-82
2021/06/08 12:46:00;;;;;;;3.93;2.20;;;;;;;;;;13098039;22;20202;-78
2021/06/08 12:51:12;;;;;;;4.40;2.00;;;;;;;;;;13073804;22;20200;-79
2021/06/08 12:56:15;;;;;;;5.60;2.10;;;;;;;;;;13080457;22;20701;-78
2021/06/08 13:01:17;;;;;;;3.47;1.83;;;;;;;;;;13097606;22;20169;-79
2021/06/08 13:06:22;;;;;;;6.80;2.27;;;;;;;;;;13075640;22;20509;-79
2021/06/08 13:11:25;;;;;;;6.33;2.10;;;;;;;;;;13077844;22;20211;-81
2021/06/08 13:16:27;;;;;;;1.97;1.70;;;;;;;;;;13073008;22;20211;-79
2021/06/08 13:21:32;;;;;;;4.37;2.80;;;;;;;;;;13075346;22;20207;-79
2021/06/08 13:26:35;;;;;;;3.63;2.00;;;;;;;;;;13075621;22;20252;-78
2021/06/08 13:31:39;;;;;;;3.40;2.10;;;;;;;;;;13074339;22;20676;-81
2021/06/08 13:36:43;;;;;;;3.20;2.00;;;;;;;;;;13091827;22;20183;-80
2021/06/08 13:42:28;;;;;;;;;;;;;;;;;;;;;
2021/06/08 13:48:29;;;;;;;4.13;1.90;;;;;;;;;;13062579;22;20468;-85
2021/06/08 13:54:05;;;;;;;2.37;1.83;;;;;;;;;;13097891;22;20518;-82
2021/06/08 14:04:39;;;;;;;3.97;2.10;;;;;;;;;;13074801;22;20169;-82
2021/06/08 14:09:44;;;;;;;2.50;2.00;;;;;;;;;;13074084;22;20714;-82
2021/06/08 14:14:46;;;;;;;2.63;1.90;;;;;;;;;;13097702;22;20187;-80
